sensor_id;sensor_type;location;lat;lon;timestamp;temperature;humidity
4615;DHT22;2320;51.362;6.946;2023-11-19T00:00:19;11.50;99.90
4615;DHT22;2320;51.362;6.946;2023-11-19T00:02:44;11.50;99.90
4615;DHT22;2320;51.362;6.946;2023-11-19T00:05:10;11.60;99.90
4615;DHT22;2320;51.362;6.946;2023-11-19T00:07:37;11.60;99.90
4615;DHT22;2320;51.362;6.946;2023-11-19T00:10:07;11.60;99.90
4615;DHT22;2320;51.362;6.946;2023-11-19T00:12:35;11.70;99.90
4615;DHT22;2320;51.362;6.946;2023-11-19T00:15:00;11.70;99.90
4615;DHT22;2320;51.362;6.946;2023-11-19T00:17:27;11.80;99.90
4615;DHT22;2320;51.362;6.946;2023-11-19T00:19:52;11.80;99.90
4615;DHT22;2320;51.362;6.946;2023-11-19T00:22:18;11.90;99.90
4615;DHT22;2320;51.362;6.946;2023-11-19T00:24:43;11.90;99.90
4615;DHT22;2320;51.362;6.946;2023-11-19T00:27:10;11.90;99.90
4615;DHT22;2320;51.362;6.946;2023-11-19T00:29:35;11.80;99.90
4615;DHT22;2320;51.362;6.946;2023-11-19T00:32:01;11.80;99.90
4615;DHT22;2320;51.362;6.946;2023-11-19T00:34:27;11.80;99.90
4615;DHT22;2320;51.362;6.946;2023-11-19T00:36:52;11.80;99.90
4615;DHT22;2320;51.362;6.946;2023-11-19T00:39:18;11.80;99.90
4615;DHT22;2320;51.362;6.946;2023-11-19T00:41:45;11.80;99.90
4615;DHT22;2320;51.362;6.946;2023-11-19T00:44:11;11.80;99.90
4615;DHT22;2320;51.362;6.946;2023-11-19T00:46:37;11.80;99.90
4615;DHT22;2320;51.362;6.946;2023-11-19T00:49:02;11.90;99.90
4615;DHT22;2320;51.362;6.946;2023-11-19T00:51:28;12.00;99.90
4615;DHT22;2320;51.362;6.946;2023-11-19T00:53:53;12.00;99.90
4615;DHT22;2320;51.362;6.946;2023-11-19T00:56:19;12.00;99.90
4615;DHT22;2320;51.362;6.946;2023-11-19T00:58:44;12.10;99.90
4615;DHT22;2320;51.362;6.946;2023-11-19T01:01:13;12.10;99.90
4615;DHT22;2320;51.362;6.946;2023-11-19T01:03:39;12.20;99.90
4615;DHT22;2320;51.362;6.946;2023-11-19T01:06:04;12.20;99.90
4615;DHT22;2320;51.362;6.946;2023-11-19T01:08:30;12.30;99.90
4615;DHT22;2320;51.362;6.946;2023-11-19T01:10:55;12.30;99.90
4615;DHT22;2320;51.362;6.946;2023-11-19T01:13:21;12.30;99.90
4615;DHT22;2320;51.362;6.946;2023-11-19T01:15:46;12.30;99.90
4615;DHT22;2320;51.362;6.946;2023-11-19T01:18:13;12.40;99.90
4615;DHT22;2320;51.362;6.946;2023-11-19T01:20:38;12.40;99.90
4615;DHT22;2320;51.362;6.946;2023-11-19T01:23:04;12.40;99.90
4615;DHT22;2320;51.362;6.946;2023-11-19T01:25:29;12.50;99.90
4615;DHT22;2320;51.362;6.946;2023-11-19T01:27:55;12.50;99.90
4615;DHT22;2320;51.362;6.946;2023-11-19T01:30:24;12.50;99.90
4615;DHT22;2320;51.362;6.946;2023-11-19T01:32:49;12.50;99.90
4615;DHT22;2320;51.362;6.946;2023-11-19T01:35:15;12.50;99.90
4615;DHT22;2320;51.362;6.946;2023-11-19T01:37:40;12.50;99.90
4615;DHT22;2320;51.362;6.946;2023-11-19T01:40:06;12.50;99.90
4615;DHT22;2320;51.362;6.946;2023-11-19T01:42:37;12.60;99.90
4615;DHT22;2320;51.362;6.946;2023-11-19T01:45:03;12.60;99.90
4615;DHT22;2320;51.362;6.946;2023-11-19T01:47:32;12.70;99.90
4615;DHT22;2320;51.362;6.946;2023-11-19T01:49:58;12.70;99.90
4615;DHT22;2320;51.362;6.946;2023-11-19T01:52:24;12.70;99.90
4615;DHT22;2320;51.362;6.946;2023-11-19T01:54:50;12.70;99.90
4615;DHT22;2320;51.362;6.946;2023-11-19T01:57:17;12.80;99.90
4615;DHT22;2320;51.362;6.946;2023-11-19T01:59:43;12.80;99.90
4615;DHT22;2320;51.362;6.946;2023-11-19T02:02:09;12.80;99.90
4615;DHT22;2320;51.362;6.946;2023-11-19T02:04:35;12.80;99.90
4615;DHT22;2320;51.362;6.946;2023-11-19T02:07:01;12.90;99.90
4615;DHT22;2320;51.362;6.946;2023-11-19T02:09:26;12.90;99.90
4615;DHT22;2320;51.362;6.946;2023-11-19T02:11:52;12.90;99.90
4615;DHT22;2320;51.362;6.946;2023-11-19T02:14:19;12.90;99.90
4615;DHT22;2320;51.362;6.946;2023-11-19T02:16:49;12.90;99.90
4615;DHT22;2320;51.362;6.946;2023-11-19T02:19:14;12.90;99.90
4615;DHT22;2320;51.362;6.946;2023-11-19T02:21:40;12.90;99.90
4615;DHT22;2320;51.362;6.946;2023-11-19T02:24:07;12.90;99.90
4615;DHT22;2320;51.362;6.946;2023-11-19T02:29:02;12.90;99.90
4615;DHT22;2320;51.362;6.946;2023-11-19T02:31:28;12.90;99.90
4615;DHT22;2320;51.362;6.946;2023-11-19T02:33:53;12.80;99.90
4615;DHT22;2320;51.362;6.946;2023-11-19T02:36:20;12.90;99.90
4615;DHT22;2320;51.362;6.946;2023-11-19T02:38:46;12.90;99.90
4615;DHT22;2320;51.362;6.946;2023-11-19T02:41:13;12.80;99.90
4615;DHT22;2320;51.362;6.946;2023-11-19T02:43:39;12.90;99.90
4615;DHT22;2320;51.362;6.946;2023-11-19T02:46:05;12.90;99.90
4615;DHT22;2320;51.362;6.946;2023-11-19T02:48:36;13.00;99.90
4615;DHT22;2320;51.362;6.946;2023-11-19T02:51:02;12.90;99.90
4615;DHT22;2320;51.362;6.946;2023-11-19T02:53:29;13.00;99.90
4615;DHT22;2320;51.362;6.946;2023-11-19T02:55:54;13.00;99.90
4615;DHT22;2320;51.362;6.946;2023-11-19T02:58:27;13.10;99.90
4615;DHT22;2320;51.362;6.946;2023-11-19T03:00:53;13.00;99.90
4615;DHT22;2320;51.362;6.946;2023-11-19T03:03:26;13.10;99.90
4615;DHT22;2320;51.362;6.946;2023-11-19T03:05:56;13.10;99.90
4615;DHT22;2320;51.362;6.946;2023-11-19T03:08:22;13.20;99.90
4615;DHT22;2320;51.362;6.946;2023-11-19T03:10:47;13.20;99.90
4615;DHT22;2320;51.362;6.946;2023-11-19T03:13:14;13.20;99.90
4615;DHT22;2320;51.362;6.946;2023-11-19T03:15:39;13.20;99.90
4615;DHT22;2320;51.362;6.946;2023-11-19T03:18:05;13.30;99.90
4615;DHT22;2320;51.362;6.946;2023-11-19T03:20:31;13.20;99.90
4615;DHT22;2320;51.362;6.946;2023-11-19T03:22:56;13.10;99.90
4615;DHT22;2320;51.362;6.946;2023-11-19T03:25:24;13.10;99.90
4615;DHT22;2320;51.362;6.946;2023-11-19T03:27:52;13.10;99.90
4615;DHT22;2320;51.362;6.946;2023-11-19T03:30:18;13.10;99.90
4615;DHT22;2320;51.362;6.946;2023-11-19T03:32:44;13.00;99.90
4615;DHT22;2320;51.362;6.946;2023-11-19T03:35:09;13.10;99.90
4615;DHT22;2320;51.362;6.946;2023-11-19T03:37:37;13.10;99.90
4615;DHT22;2320;51.362;6.946;2023-11-19T03:40:02;13.00;99.90
4615;DHT22;2320;51.362;6.946;2023-11-19T03:42:28;13.00;99.90
4615;DHT22;2320;51.362;6.946;2023-11-19T03:44:55;13.00;99.90
4615;DHT22;2320;51.362;6.946;2023-11-19T03:47:21;13.10;99.90
4615;DHT22;2320;51.362;6.946;2023-11-19T03:49:47;13.20;99.90
4615;DHT22;2320;51.362;6.946;2023-11-19T03:52:14;13.20;99.90
4615;DHT22;2320;51.362;6.946;2023-11-19T03:54:39;13.20;99.90
4615;DHT22;2320;51.362;6.946;2023-11-19T03:57:04;13.20;99.90
4615;DHT22;2320;51.362;6.946;2023-11-19T03:59:30;13.10;99.90
4615;DHT22;2320;51.362;6.946;2023-11-19T04:01:56;13.10;99.90
4615;DHT22;2320;51.362;6.946;2023-11-19T04:04:22;13.00;99.90
4615;DHT22;2320;51.362;6.946;2023-11-19T04:06:48;13.00;99.90
4615;DHT22;2320;51.362;6.946;2023-11-19T04:09:13;12.90;99.90
4615;DHT22;2320;51.362;6.946;2023-11-19T04:11:39;12.90;99.90
4615;DHT22;2320;51.362;6.946;2023-11-19T04:14:05;12.80;99.90
4615;DHT22;2320;51.362;6.946;2023-11-19T04:16:30;12.70;99.90
4615;DHT22;2320;51.362;6.946;2023-11-19T04:18:56;12.70;99.90
4615;DHT22;2320;51.362;6.946;2023-11-19T04:21:22;12.70;99.90
4615;DHT22;2320;51.362;6.946;2023-11-19T04:23:48;12.70;99.90
4615;DHT22;2320;51.362;6.946;2023-11-19T04:26:14;12.60;99.90
4615;DHT22;2320;51.362;6.946;2023-11-19T04:28:41;12.60;99.90
4615;DHT22;2320;51.362;6.946;2023-11-19T04:31:06;12.60;99.90
4615;DHT22;2320;51.362;6.946;2023-11-19T04:33:31;12.40;99.90
4615;DHT22;2320;51.362;6.946;2023-11-19T04:35:57;12.50;99.90
4615;DHT22;2320;51.362;6.946;2023-11-19T04:38:22;12.40;99.90
4615;DHT22;2320;51.362;6.946;2023-11-19T04:40:48;12.50;99.90
4615;DHT22;2320;51.362;6.946;2023-11-19T04:43:13;12.50;99.90
4615;DHT22;2320;51.362;6.946;2023-11-19T04:45:39;12.50;99.90
4615;DHT22;2320;51.362;6.946;2023-11-19T04:48:05;12.50;99.90
4615;DHT22;2320;51.362;6.946;2023-11-19T04:50:30;12.40;99.90
4615;DHT22;2320;51.362;6.946;2023-11-19T04:52:56;12.50;99.90
4615;DHT22;2320;51.362;6.946;2023-11-19T04:55:22;12.50;99.90
4615;DHT22;2320;51.362;6.946;2023-11-19T04:57:47;12.40;99.90
4615;DHT22;2320;51.362;6.946;2023-11-19T05:00:13;12.40;99.90
4615;DHT22;2320;51.362;6.946;2023-11-19T05:02:39;12.50;99.90
4615;DHT22;2320;51.362;6.946;2023-11-19T05:05:04;12.50;99.90
4615;DHT22;2320;51.362;6.946;2023-11-19T05:07:30;12.60;99.90
4615;DHT22;2320;51.362;6.946;2023-11-19T05:09:55;12.60;99.90
4615;DHT22;2320;51.362;6.946;2023-11-19T05:12:21;12.70;99.90
4615;DHT22;2320;51.362;6.946;2023-11-19T05:14:48;12.70;99.90
4615;DHT22;2320;51.362;6.946;2023-11-19T05:17:18;12.70;99.90
4615;DHT22;2320;51.362;6.946;2023-11-19T05:19:44;12.60;99.90
4615;DHT22;2320;51.362;6.946;2023-11-19T05:22:10;12.50;99.90
4615;DHT22;2320;51.362;6.946;2023-11-19T05:24:35;12.50;99.90
4615;DHT22;2320;51.362;6.946;2023-11-19T05:27:01;12.40;99.90
4615;DHT22;2320;51.362;6.946;2023-11-19T05:29:27;12.40;99.90
4615;DHT22;2320;51.362;6.946;2023-11-19T05:31:52;12.40;99.90
4615;DHT22;2320;51.362;6.946;2023-11-19T05:34:20;12.40;99.90
4615;DHT22;2320;51.362;6.946;2023-11-19T05:36:45;12.40;99.90
4615;DHT22;2320;51.362;6.946;2023-11-19T05:39:11;12.40;99.90
4615;DHT22;2320;51.362;6.946;2023-11-19T05:41:36;12.40;99.90
4615;DHT22;2320;51.362;6.946;2023-11-19T05:44:02;12.40;99.90
4615;DHT22;2320;51.362;6.946;2023-11-19T05:46:27;12.50;99.90
4615;DHT22;2320;51.362;6.946;2023-11-19T05:48:53;12.40;99.90
4615;DHT22;2320;51.362;6.946;2023-11-19T05:51:18;12.40;99.90
4615;DHT22;2320;51.362;6.946;2023-11-19T05:53:44;12.40;99.90
4615;DHT22;2320;51.362;6.946;2023-11-19T05:56:13;12.40;99.90
4615;DHT22;2320;51.362;6.946;2023-11-19T05:58:41;12.30;99.90
4615;DHT22;2320;51.362;6.946;2023-11-19T06:01:06;12.30;99.90
4615;DHT22;2320;51.362;6.946;2023-11-19T06:03:32;12.30;99.90
4615;DHT22;2320;51.362;6.946;2023-11-19T06:05:58;12.30;99.90
4615;DHT22;2320;51.362;6.946;2023-11-19T06:08:23;12.30;99.90
4615;DHT22;2320;51.362;6.946;2023-11-19T06:10:49;12.30;99.90
4615;DHT22;2320;51.362;6.946;2023-11-19T06:13:16;12.30;99.90
4615;DHT22;2320;51.362;6.946;2023-11-19T06:15:42;12.30;99.90
4615;DHT22;2320;51.362;6.946;2023-11-19T06:18:07;12.40;99.90
4615;DHT22;2320;51.362;6.946;2023-11-19T06:20:33;12.40;99.90
4615;DHT22;2320;51.362;6.946;2023-11-19T06:22:59;12.40;99.90
4615;DHT22;2320;51.362;6.946;2023-11-19T06:25:24;12.30;99.90
4615;DHT22;2320;51.362;6.946;2023-11-19T06:27:50;12.30;99.90
4615;DHT22;2320;51.362;6.946;2023-11-19T06:30:16;12.20;99.90
4615;DHT22;2320;51.362;6.946;2023-11-19T06:32:42;12.10;99.90
4615;DHT22;2320;51.362;6.946;2023-11-19T06:35:07;12.10;99.90
4615;DHT22;2320;51.362;6.946;2023-11-19T06:37:33;12.00;99.90
4615;DHT22;2320;51.362;6.946;2023-11-19T06:39:59;11.90;99.90
4615;DHT22;2320;51.362;6.946;2023-11-19T06:42:24;11.90;99.90
4615;DHT22;2320;51.362;6.946;2023-11-19T06:44:50;11.90;99.90
4615;DHT22;2320;51.362;6.946;2023-11-19T06:47:16;11.90;99.90
4615;DHT22;2320;51.362;6.946;2023-11-19T06:49:45;12.00;99.90
4615;DHT22;2320;51.362;6.946;2023-11-19T06:52:10;12.00;99.90
4615;DHT22;2320;51.362;6.946;2023-11-19T06:54:37;11.90;99.90
4615;DHT22;2320;51.362;6.946;2023-11-19T06:57:03;11.80;99.90
4615;DHT22;2320;51.362;6.946;2023-11-19T06:59:30;11.80;99.90
4615;DHT22;2320;51.362;6.946;2023-11-19T07:01:56;11.80;99.90
4615;DHT22;2320;51.362;6.946;2023-11-19T07:04:21;11.70;99.90
4615;DHT22;2320;51.362;6.946;2023-11-19T07:06:47;11.70;99.90
4615;DHT22;2320;51.362;6.946;2023-11-19T07:09:13;11.70;99.90
4615;DHT22;2320;51.362;6.946;2023-11-19T07:11:39;11.70;99.90
4615;DHT22;2320;51.362;6.946;2023-11-19T07:14:05;11.70;99.90
4615;DHT22;2320;51.362;6.946;2023-11-19T07:16:34;11.70;99.90
4615;DHT22;2320;51.362;6.946;2023-11-19T07:19:02;11.60;99.90
4615;DHT22;2320;51.362;6.946;2023-11-19T07:21:28;11.70;99.90
4615;DHT22;2320;51.362;6.946;2023-11-19T07:23:54;11.70;99.90
4615;DHT22;2320;51.362;6.946;2023-11-19T07:26:20;11.60;99.90
4615;DHT22;2320;51.362;6.946;2023-11-19T07:28:45;11.60;99.90
4615;DHT22;2320;51.362;6.946;2023-11-19T07:31:11;11.70;99.90
4615;DHT22;2320;51.362;6.946;2023-11-19T07:33:38;11.70;99.90
4615;DHT22;2320;51.362;6.946;2023-11-19T07:36:04;11.80;99.90
4615;DHT22;2320;51.362;6.946;2023-11-19T07:38:30;11.80;99.90
4615;DHT22;2320;51.362;6.946;2023-11-19T07:40:55;11.90;99.90
4615;DHT22;2320;51.362;6.946;2023-11-19T07:43:21;11.90;99.90
4615;DHT22;2320;51.362;6.946;2023-11-19T07:45:46;12.00;99.90
4615;DHT22;2320;51.362;6.946;2023-11-19T07:48:11;12.00;99.90
4615;DHT22;2320;51.362;6.946;2023-11-19T07:50:39;12.10;99.90
4615;DHT22;2320;51.362;6.946;2023-11-19T07:53:06;12.30;99.90
4615;DHT22;2320;51.362;6.946;2023-11-19T07:55:33;12.40;99.90
4615;DHT22;2320;51.362;6.946;2023-11-19T07:57:58;12.50;99.90
4615;DHT22;2320;51.362;6.946;2023-11-19T08:00:23;12.60;99.90
4615;DHT22;2320;51.362;6.946;2023-11-19T08:02:49;12.70;99.90
4615;DHT22;2320;51.362;6.946;2023-11-19T08:05:14;12.80;99.90
4615;DHT22;2320;51.362;6.946;2023-11-19T08:07:40;12.90;99.90
4615;DHT22;2320;51.362;6.946;2023-11-19T08:10:07;13.00;99.90
4615;DHT22;2320;51.362;6.946;2023-11-19T08:12:35;13.10;99.90
4615;DHT22;2320;51.362;6.946;2023-11-19T08:15:01;13.20;99.90
4615;DHT22;2320;51.362;6.946;2023-11-19T08:17:27;13.40;99.90
4615;DHT22;2320;51.362;6.946;2023-11-19T08:19:52;13.50;99.90
4615;DHT22;2320;51.362;6.946;2023-11-19T08:22:18;13.60;99.90
4615;DHT22;2320;51.362;6.946;2023-11-19T08:24:43;13.80;99.90
4615;DHT22;2320;51.362;6.946;2023-11-19T08:27:09;13.70;99.90
4615;DHT22;2320;51.362;6.946;2023-11-19T08:29:34;13.60;99.90
4615;DHT22;2320;51.362;6.946;2023-11-19T08:32:00;13.40;99.90
4615;DHT22;2320;51.362;6.946;2023-11-19T08:34:27;13.40;99.90
4615;DHT22;2320;51.362;6.946;2023-11-19T08:36:52;13.40;99.90
4615;DHT22;2320;51.362;6.946;2023-11-19T08:39:18;13.10;99.90
4615;DHT22;2320;51.362;6.946;2023-11-19T08:41:44;13.00;99.90
4615;DHT22;2320;51.362;6.946;2023-11-19T08:44:09;12.80;99.90
4615;DHT22;2320;51.362;6.946;2023-11-19T08:46:35;12.70;99.90
4615;DHT22;2320;51.362;6.946;2023-11-19T08:49:00;12.90;99.90
4615;DHT22;2320;51.362;6.946;2023-11-19T08:51:26;12.90;99.90
4615;DHT22;2320;51.362;6.946;2023-11-19T08:53:53;12.80;99.90
4615;DHT22;2320;51.362;6.946;2023-11-19T08:56:19;12.80;99.90
4615;DHT22;2320;51.362;6.946;2023-11-19T08:58:44;12.80;99.90
4615;DHT22;2320;51.362;6.946;2023-11-19T09:01:09;12.80;99.90
4615;DHT22;2320;51.362;6.946;2023-11-19T09:03:35;12.80;99.90
4615;DHT22;2320;51.362;6.946;2023-11-19T09:06:02;12.90;99.90
4615;DHT22;2320;51.362;6.946;2023-11-19T09:08:27;13.00;99.90
4615;DHT22;2320;51.362;6.946;2023-11-19T09:10:53;13.20;99.90
4615;DHT22;2320;51.362;6.946;2023-11-19T09:13:18;13.20;99.90
4615;DHT22;2320;51.362;6.946;2023-11-19T09:15:44;13.30;99.90
4615;DHT22;2320;51.362;6.946;2023-11-19T09:18:09;13.30;99.90
4615;DHT22;2320;51.362;6.946;2023-11-19T09:20:35;13.30;99.90
4615;DHT22;2320;51.362;6.946;2023-11-19T09:23:04;13.30;99.90
4615;DHT22;2320;51.362;6.946;2023-11-19T09:25:30;13.30;99.90
4615;DHT22;2320;51.362;6.946;2023-11-19T09:27:56;13.50;99.90
4615;DHT22;2320;51.362;6.946;2023-11-19T09:30:21;13.50;99.90
4615;DHT22;2320;51.362;6.946;2023-11-19T09:32:48;13.50;99.90
4615;DHT22;2320;51.362;6.946;2023-11-19T09:35:13;13.70;99.90
4615;DHT22;2320;51.362;6.946;2023-11-19T09:37:40;13.80;99.90
4615;DHT22;2320;51.362;6.946;2023-11-19T09:40:06;13.70;99.90
4615;DHT22;2320;51.362;6.946;2023-11-19T09:42:44;13.70;99.90
4615;DHT22;2320;51.362;6.946;2023-11-19T09:45:16;13.60;99.90
4615;DHT22;2320;51.362;6.946;2023-11-19T09:47:45;13.60;99.90
4615;DHT22;2320;51.362;6.946;2023-11-19T09:50:17;13.50;99.90
4615;DHT22;2320;51.362;6.946;2023-11-19T09:52:46;13.50;99.90
4615;DHT22;2320;51.362;6.946;2023-11-19T09:55:12;13.60;99.90
4615;DHT22;2320;51.362;6.946;2023-11-19T09:57:41;13.50;99.90
4615;DHT22;2320;51.362;6.946;2023-11-19T10:00:09;13.50;99.90
4615;DHT22;2320;51.362;6.946;2023-11-19T10:02:36;13.60;99.90
4615;DHT22;2320;51.362;6.946;2023-11-19T10:05:03;13.50;99.90
4615;DHT22;2320;51.362;6.946;2023-11-19T10:07:30;13.40;99.90
4615;DHT22;2320;51.362;6.946;2023-11-19T10:09:58;13.40;99.90
4615;DHT22;2320;51.362;6.946;2023-11-19T10:12:26;13.40;99.90
4615;DHT22;2320;51.362;6.946;2023-11-19T10:14:51;13.50;99.90
4615;DHT22;2320;51.362;6.946;2023-11-19T10:17:17;13.70;99.90
4615;DHT22;2320;51.362;6.946;2023-11-19T10:19:44;13.80;99.90
4615;DHT22;2320;51.362;6.946;2023-11-19T10:22:09;13.90;99.90
4615;DHT22;2320;51.362;6.946;2023-11-19T10:24:35;13.80;99.90
4615;DHT22;2320;51.362;6.946;2023-11-19T10:27:06;13.90;99.90
4615;DHT22;2320;51.362;6.946;2023-11-19T10:29:36;13.80;99.90
4615;DHT22;2320;51.362;6.946;2023-11-19T10:32:01;13.90;99.90
4615;DHT22;2320;51.362;6.946;2023-11-19T10:34:27;13.90;99.90
4615;DHT22;2320;51.362;6.946;2023-11-19T10:36:53;13.90;99.90
4615;DHT22;2320;51.362;6.946;2023-11-19T10:39:18;13.90;99.90
4615;DHT22;2320;51.362;6.946;2023-11-19T10:41:44;13.90;99.90
4615;DHT22;2320;51.362;6.946;2023-11-19T10:44:10;14.00;99.90
4615;DHT22;2320;51.362;6.946;2023-11-19T10:46:36;14.10;99.90
4615;DHT22;2320;51.362;6.946;2023-11-19T10:49:01;14.10;99.90
4615;DHT22;2320;51.362;6.946;2023-11-19T10:51:27;14.10;99.90
4615;DHT22;2320;51.362;6.946;2023-11-19T10:53:54;14.10;99.90
4615;DHT22;2320;51.362;6.946;2023-11-19T10:56:25;14.00;99.90
4615;DHT22;2320;51.362;6.946;2023-11-19T10:58:51;14.10;99.90
4615;DHT22;2320;51.362;6.946;2023-11-19T11:01:19;14.10;99.90
4615;DHT22;2320;51.362;6.946;2023-11-19T11:03:48;14.10;99.90
4615;DHT22;2320;51.362;6.946;2023-11-19T11:06:16;14.10;99.90
4615;DHT22;2320;51.362;6.946;2023-11-19T11:08:42;14.10;99.90
4615;DHT22;2320;51.362;6.946;2023-11-19T11:11:08;14.20;99.90
4615;DHT22;2320;51.362;6.946;2023-11-19T11:13:35;14.30;99.90
4615;DHT22;2320;51.362;6.946;2023-11-19T11:16:02;14.40;99.90
4615;DHT22;2320;51.362;6.946;2023-11-19T11:18:29;14.50;99.90
4615;DHT22;2320;51.362;6.946;2023-11-19T11:23:35;14.60;99.90
4615;DHT22;2320;51.362;6.946;2023-11-19T11:26:18;14.50;99.90
4615;DHT22;2320;51.362;6.946;2023-11-19T11:34:04;14.20;99.90
4615;DHT22;2320;51.362;6.946;2023-11-19T11:36:31;14.20;99.90
4615;DHT22;2320;51.362;6.946;2023-11-19T11:38:59;14.30;99.90
4615;DHT22;2320;51.362;6.946;2023-11-19T11:41:32;14.20;99.90
4615;DHT22;2320;51.362;6.946;2023-11-19T11:43:58;14.30;99.90
4615;DHT22;2320;51.362;6.946;2023-11-19T11:54:10;14.30;99.90
4615;DHT22;2320;51.362;6.946;2023-11-19T11:56:37;14.50;99.90
4615;DHT22;2320;51.362;6.946;2023-11-19T11:59:02;14.50;99.90
4615;DHT22;2320;51.362;6.946;2023-11-19T12:01:28;14.50;99.90
4615;DHT22;2320;51.362;6.946;2023-11-19T12:03:56;14.50;99.90
4615;DHT22;2320;51.362;6.946;2023-11-19T12:06:22;14.30;99.90
4615;DHT22;2320;51.362;6.946;2023-11-19T12:08:47;14.30;99.90
4615;DHT22;2320;51.362;6.946;2023-11-19T12:11:12;14.30;99.90
4615;DHT22;2320;51.362;6.946;2023-11-19T12:13:54;14.30;99.90
4615;DHT22;2320;51.362;6.946;2023-11-19T12:16:27;14.40;99.90
4615;DHT22;2320;51.362;6.946;2023-11-19T12:18:54;14.30;99.90
4615;DHT22;2320;51.362;6.946;2023-11-19T12:21:29;14.40;99.90
4615;DHT22;2320;51.362;6.946;2023-11-19T12:23:55;14.40;99.90
4615;DHT22;2320;51.362;6.946;2023-11-19T12:26:34;14.40;99.90
4615;DHT22;2320;51.362;6.946;2023-11-19T12:29:00;14.30;99.90
4615;DHT22;2320;51.362;6.946;2023-11-19T12:31:26;14.40;99.90
4615;DHT22;2320;51.362;6.946;2023-11-19T12:33:51;14.40;99.90
4615;DHT22;2320;51.362;6.946;2023-11-19T12:36:18;14.50;99.90
4615;DHT22;2320;51.362;6.946;2023-11-19T12:38:44;14.50;99.90
4615;DHT22;2320;51.362;6.946;2023-11-19T12:41:11;14.50;99.90
4615;DHT22;2320;51.362;6.946;2023-11-19T12:43:37;14.40;99.90
4615;DHT22;2320;51.362;6.946;2023-11-19T12:46:03;14.50;99.90
4615;DHT22;2320;51.362;6.946;2023-11-19T12:48:29;14.40;99.90
4615;DHT22;2320;51.362;6.946;2023-11-19T12:50:55;14.30;99.90
4615;DHT22;2320;51.362;6.946;2023-11-19T12:53:25;14.30;99.90
4615;DHT22;2320;51.362;6.946;2023-11-19T12:55:51;14.20;99.90
4615;DHT22;2320;51.362;6.946;2023-11-19T13:03:32;13.90;99.90
4615;DHT22;2320;51.362;6.946;2023-11-19T13:06:04;13.60;99.90
4615;DHT22;2320;51.362;6.946;2023-11-19T13:08:37;13.40;99.90
4615;DHT22;2320;51.362;6.946;2023-11-19T13:11:05;13.20;99.90
4615;DHT22;2320;51.362;6.946;2023-11-19T13:13:31;13.10;99.90
4615;DHT22;2320;51.362;6.946;2023-11-19T13:16:04;13.00;99.90
4615;DHT22;2320;51.362;6.946;2023-11-19T13:18:34;12.90;99.90
4615;DHT22;2320;51.362;6.946;2023-11-19T13:20:59;12.80;99.90
4615;DHT22;2320;51.362;6.946;2023-11-19T13:23:25;12.70;99.90
4615;DHT22;2320;51.362;6.946;2023-11-19T13:25:50;12.60;99.90
4615;DHT22;2320;51.362;6.946;2023-11-19T13:28:16;12.60;99.90
4615;DHT22;2320;51.362;6.946;2023-11-19T13:30:41;12.70;99.90
4615;DHT22;2320;51.362;6.946;2023-11-19T13:33:07;12.70;99.90
4615;DHT22;2320;51.362;6.946;2023-11-19T13:35:32;12.70;99.90
4615;DHT22;2320;51.362;6.946;2023-11-19T13:37:58;12.80;99.90
4615;DHT22;2320;51.362;6.946;2023-11-19T13:40:23;12.70;99.90
4615;DHT22;2320;51.362;6.946;2023-11-19T13:42:50;12.70;99.90
4615;DHT22;2320;51.362;6.946;2023-11-19T13:45:15;12.80;99.90
4615;DHT22;2320;51.362;6.946;2023-11-19T13:47:44;12.80;99.90
4615;DHT22;2320;51.362;6.946;2023-11-19T13:50:10;12.80;99.90
4615;DHT22;2320;51.362;6.946;2023-11-19T13:52:36;12.70;99.90
4615;DHT22;2320;51.362;6.946;2023-11-19T13:55:04;12.60;99.90
4615;DHT22;2320;51.362;6.946;2023-11-19T13:57:30;12.70;99.90
4615;DHT22;2320;51.362;6.946;2023-11-19T13:59:56;12.70;99.90
4615;DHT22;2320;51.362;6.946;2023-11-19T14:02:22;12.60;99.90
4615;DHT22;2320;51.362;6.946;2023-11-19T14:04:47;12.70;99.90
4615;DHT22;2320;51.362;6.946;2023-11-19T14:07:13;12.70;99.90
4615;DHT22;2320;51.362;6.946;2023-11-19T14:09:41;12.80;99.90
4615;DHT22;2320;51.362;6.946;2023-11-19T14:12:07;12.80;99.90
4615;DHT22;2320;51.362;6.946;2023-11-19T14:14:33;12.70;99.90
4615;DHT22;2320;51.362;6.946;2023-11-19T14:16:59;12.70;99.90
4615;DHT22;2320;51.362;6.946;2023-11-19T14:19:24;12.60;99.90
4615;DHT22;2320;51.362;6.946;2023-11-19T14:21:50;12.60;99.90
4615;DHT22;2320;51.362;6.946;2023-11-19T14:24:15;12.60;99.90
4615;DHT22;2320;51.362;6.946;2023-11-19T14:26:41;12.60;99.90
4615;DHT22;2320;51.362;6.946;2023-11-19T14:29:06;12.50;99.90
4615;DHT22;2320;51.362;6.946;2023-11-19T14:31:31;12.50;99.90
4615;DHT22;2320;51.362;6.946;2023-11-19T14:33:57;12.50;99.90
4615;DHT22;2320;51.362;6.946;2023-11-19T14:36:23;12.50;99.90
4615;DHT22;2320;51.362;6.946;2023-11-19T14:38:48;12.60;99.90
4615;DHT22;2320;51.362;6.946;2023-11-19T14:41:14;12.60;99.90
4615;DHT22;2320;51.362;6.946;2023-11-19T14:43:39;12.70;99.90
4615;DHT22;2320;51.362;6.946;2023-11-19T14:46:05;12.50;99.90
4615;DHT22;2320;51.362;6.946;2023-11-19T14:48:31;12.50;99.90
4615;DHT22;2320;51.362;6.946;2023-11-19T14:50:57;12.50;99.90
4615;DHT22;2320;51.362;6.946;2023-11-19T14:53:23;12.40;99.90
4615;DHT22;2320;51.362;6.946;2023-11-19T14:55:48;12.30;99.90
4615;DHT22;2320;51.362;6.946;2023-11-19T14:58:14;12.30;99.90
4615;DHT22;2320;51.362;6.946;2023-11-19T15:00:39;12.20;99.90
4615;DHT22;2320;51.362;6.946;2023-11-19T15:03:05;12.10;99.90
4615;DHT22;2320;51.362;6.946;2023-11-19T15:05:31;12.00;99.90
4615;DHT22;2320;51.362;6.946;2023-11-19T15:07:57;12.00;99.90
4615;DHT22;2320;51.362;6.946;2023-11-19T15:10:22;12.00;99.90
4615;DHT22;2320;51.362;6.946;2023-11-19T15:12:50;11.90;99.90
4615;DHT22;2320;51.362;6.946;2023-11-19T15:15:15;11.90;99.90
4615;DHT22;2320;51.362;6.946;2023-11-19T15:17:41;11.90;99.90
4615;DHT22;2320;51.362;6.946;2023-11-19T15:20:07;11.90;99.90
4615;DHT22;2320;51.362;6.946;2023-11-19T15:22:32;11.90;99.90
4615;DHT22;2320;51.362;6.946;2023-11-19T15:24:58;12.00;99.90
4615;DHT22;2320;51.362;6.946;2023-11-19T15:27:23;12.00;99.90
4615;DHT22;2320;51.362;6.946;2023-11-19T15:29:49;12.00;99.90
4615;DHT22;2320;51.362;6.946;2023-11-19T15:32:14;12.10;99.90
4615;DHT22;2320;51.362;6.946;2023-11-19T15:34:40;12.10;99.90
4615;DHT22;2320;51.362;6.946;2023-11-19T15:37:07;12.10;99.90
4615;DHT22;2320;51.362;6.946;2023-11-19T15:39:32;12.10;99.90
4615;DHT22;2320;51.362;6.946;2023-11-19T15:41:59;12.10;99.90
4615;DHT22;2320;51.362;6.946;2023-11-19T15:44:24;12.10;99.90
4615;DHT22;2320;51.362;6.946;2023-11-19T15:46:50;12.10;99.90
4615;DHT22;2320;51.362;6.946;2023-11-19T15:49:15;12.10;99.90
4615;DHT22;2320;51.362;6.946;2023-11-19T15:51:41;12.00;99.90
4615;DHT22;2320;51.362;6.946;2023-11-19T15:54:07;12.00;99.90
4615;DHT22;2320;51.362;6.946;2023-11-19T15:56:33;12.00;99.90
4615;DHT22;2320;51.362;6.946;2023-11-19T15:58:58;12.00;99.90
4615;DHT22;2320;51.362;6.946;2023-11-19T16:01:24;12.00;99.90
4615;DHT22;2320;51.362;6.946;2023-11-19T16:03:49;12.00;99.90
4615;DHT22;2320;51.362;6.946;2023-11-19T16:06:15;12.00;99.90
4615;DHT22;2320;51.362;6.946;2023-11-19T16:08:40;12.00;99.90
4615;DHT22;2320;51.362;6.946;2023-11-19T16:11:06;11.90;99.90
4615;DHT22;2320;51.362;6.946;2023-11-19T16:13:33;11.80;99.90
4615;DHT22;2320;51.362;6.946;2023-11-19T16:15:59;11.90;99.90
4615;DHT22;2320;51.362;6.946;2023-11-19T16:18:24;11.90;99.90